sensor_id;sensor_type;location;lat;lon;timestamp;P1;durP1;ratioP1;P2;durP2;ratioP2
40745;SDS011;26454;51.164;4.488;2022-12-26T00:01:45;17.15;;;15.30;;
40745;SDS011;26454;51.164;4.488;2022-12-26T00:04:14;16.60;;;13.52;;
40745;SDS011;26454;51.164;4.488;2022-12-26T00:06:40;14.55;;;13.00;;
40745;SDS011;26454;51.164;4.488;2022-12-26T00:09:08;18.13;;;15.82;;
40745;SDS011;26454;51.164;4.488;2022-12-26T00:11:36;16.80;;;14.40;;
40745;SDS011;26454;51.164;4.488;2022-12-26T00:14:05;14.02;;;12.63;;
40745;SDS011;26454;51.164;4.488;2022-12-26T00:16:31;15.05;;;12.82;;
40745;SDS011;26454;51.164;4.488;2022-12-26T00:18:59;16.38;;;14.55;;
40745;SDS011;26454;51.164;4.488;2022-12-26T00:21:26;16.15;;;14.50;;
40745;SDS011;26454;51.164;4.488;2022-12-26T00:23:54;16.85;;;14.90;;
40745;SDS011;26454;51.164;4.488;2022-12-26T00:26:21;17.88;;;16.15;;
40745;SDS011;26454;51.164;4.488;2022-12-26T00:28:48;18.08;;;16.17;;
40745;SDS011;26454;51.164;4.488;2022-12-26T00:31:15;20.67;;;18.27;;
40745;SDS011;26454;51.164;4.488;2022-12-26T00:33:41;20.92;;;18.45;;
40745;SDS011;26454;51.164;4.488;2022-12-26T00:36:16;20.75;;;18.17;;
40745;SDS011;26454;51.164;4.488;2022-12-26T00:38:43;22.02;;;19.70;;
40745;SDS011;26454;51.164;4.488;2022-12-26T00:41:10;24.27;;;21.75;;
40745;SDS011;26454;51.164;4.488;2022-12-26T00:43:37;23.58;;;21.02;;
40745;SDS011;26454;51.164;4.488;2022-12-26T00:46:03;24.27;;;21.63;;
40745;SDS011;26454;51.164;4.488;2022-12-26T00:48:30;24.73;;;20.02;;
40745;SDS011;26454;51.164;4.488;2022-12-26T00:50:56;27.05;;;21.85;;
40745;SDS011;26454;51.164;4.488;2022-12-26T00:53:23;26.67;;;22.60;;
40745;SDS011;26454;51.164;4.488;2022-12-26T00:55:49;28.60;;;22.33;;
40745;SDS011;26454;51.164;4.488;2022-12-26T00:58:15;26.95;;;22.73;;
40745;SDS011;26454;51.164;4.488;2022-12-26T01:00:41;29.50;;;22.77;;
40745;SDS011;26454;51.164;4.488;2022-12-26T01:03:08;28.58;;;24.27;;
40745;SDS011;26454;51.164;4.488;2022-12-26T01:05:35;31.63;;;24.33;;
40745;SDS011;26454;51.164;4.488;2022-12-26T01:08:01;24.45;;;21.85;;
40745;SDS011;26454;51.164;4.488;2022-12-26T01:10:28;24.30;;;21.63;;
40745;SDS011;26454;51.164;4.488;2022-12-26T01:12:54;25.58;;;22.80;;
40745;SDS011;26454;51.164;4.488;2022-12-26T01:15:20;30.20;;;25.63;;
40745;SDS011;26454;51.164;4.488;2022-12-26T01:17:46;24.55;;;21.83;;
40745;SDS011;26454;51.164;4.488;2022-12-26T01:20:12;26.40;;;22.13;;
40745;SDS011;26454;51.164;4.488;2022-12-26T01:22:38;26.77;;;24.00;;
40745;SDS011;26454;51.164;4.488;2022-12-26T01:25:04;26.10;;;23.23;;
40745;SDS011;26454;51.164;4.488;2022-12-26T01:27:31;26.40;;;22.98;;
40745;SDS011;26454;51.164;4.488;2022-12-26T01:29:57;22.92;;;20.65;;
40745;SDS011;26454;51.164;4.488;2022-12-26T01:32:23;25.08;;;22.45;;
40745;SDS011;26454;51.164;4.488;2022-12-26T01:34:49;26.48;;;23.63;;
40745;SDS011;26454;51.164;4.488;2022-12-26T01:37:17;26.15;;;23.40;;
40745;SDS011;26454;51.164;4.488;2022-12-26T01:39:43;26.20;;;22.80;;
40745;SDS011;26454;51.164;4.488;2022-12-26T01:42:13;23.55;;;20.80;;
40745;SDS011;26454;51.164;4.488;2022-12-26T01:47:21;23.38;;;20.90;;
40745;SDS011;26454;51.164;4.488;2022-12-26T01:49:49;22.88;;;20.48;;
40745;SDS011;26454;51.164;4.488;2022-12-26T01:52:19;22.23;;;19.75;;
40745;SDS011;26454;51.164;4.488;2022-12-26T01:54:47;23.58;;;20.88;;
40745;SDS011;26454;51.164;4.488;2022-12-26T01:57:29;22.58;;;19.90;;
40745;SDS011;26454;51.164;4.488;2022-12-26T01:59:56;22.90;;;20.25;;
40745;SDS011;26454;51.164;4.488;2022-12-26T02:02:22;24.38;;;21.40;;
40745;SDS011;26454;51.164;4.488;2022-12-26T02:04:50;22.83;;;20.27;;
40745;SDS011;26454;51.164;4.488;2022-12-26T02:07:37;19.73;;;17.88;;
40745;SDS011;26454;51.164;4.488;2022-12-26T02:10:04;21.30;;;19.17;;
40745;SDS011;26454;51.164;4.488;2022-12-26T02:12:32;20.85;;;18.58;;
40745;SDS011;26454;51.164;4.488;2022-12-26T02:14:59;21.10;;;19.08;;
40745;SDS011;26454;51.164;4.488;2022-12-26T02:17:26;20.00;;;17.90;;
40745;SDS011;26454;51.164;4.488;2022-12-26T02:42:58;17.02;;;15.43;;
40745;SDS011;26454;51.164;4.488;2022-12-26T02:54:08;15.27;;;13.77;;
40745;SDS011;26454;51.164;4.488;2022-12-26T02:56:58;17.15;;;14.32;;
40745;SDS011;26454;51.164;4.488;2022-12-26T03:03:02;14.45;;;13.30;;
40745;SDS011;26454;51.164;4.488;2022-12-26T03:05:56;12.05;;;10.90;;
40745;SDS011;26454;51.164;4.488;2022-12-26T03:08:47;12.98;;;11.88;;
40745;SDS011;26454;51.164;4.488;2022-12-26T03:11:36;13.73;;;12.38;;
40745;SDS011;26454;51.164;4.488;2022-12-26T03:14:32;13.07;;;11.88;;
40745;SDS011;26454;51.164;4.488;2022-12-26T03:17:05;13.65;;;12.32;;
40745;SDS011;26454;51.164;4.488;2022-12-26T03:19:46;12.77;;;11.52;;
40745;SDS011;26454;51.164;4.488;2022-12-26T03:22:30;13.05;;;11.90;;
40745;SDS011;26454;51.164;4.488;2022-12-26T03:24:59;13.30;;;12.02;;
40745;SDS011;26454;51.164;4.488;2022-12-26T03:27:45;15.00;;;11.82;;
40745;SDS011;26454;51.164;4.488;2022-12-26T03:30:12;12.57;;;11.27;;
40745;SDS011;26454;51.164;4.488;2022-12-26T03:32:56;13.85;;;11.80;;
40745;SDS011;26454;51.164;4.488;2022-12-26T03:35:23;15.18;;;12.82;;
40745;SDS011;26454;51.164;4.488;2022-12-26T03:37:51;16.35;;;14.30;;
40745;SDS011;26454;51.164;4.488;2022-12-26T03:40:23;18.40;;;15.02;;
40745;SDS011;26454;51.164;4.488;2022-12-26T03:43:19;18.45;;;14.95;;
40745;SDS011;26454;51.164;4.488;2022-12-26T03:49:13;20.98;;;16.05;;
40745;SDS011;26454;51.164;4.488;2022-12-26T04:00:49;18.90;;;13.00;;
40745;SDS011;26454;51.164;4.488;2022-12-26T04:03:35;14.38;;;12.90;;
40745;SDS011;26454;51.164;4.488;2022-12-26T04:06:22;16.83;;;12.73;;
40745;SDS011;26454;51.164;4.488;2022-12-26T04:09:09;13.80;;;11.32;;
40745;SDS011;26454;51.164;4.488;2022-12-26T04:11:54;17.30;;;11.75;;
40745;SDS011;26454;51.164;4.488;2022-12-26T04:14:41;12.77;;;10.02;;
40745;SDS011;26454;51.164;4.488;2022-12-26T04:17:51;10.00;;;8.32;;
40745;SDS011;26454;51.164;4.488;2022-12-26T04:23:44;10.18;;;8.88;;
40745;SDS011;26454;51.164;4.488;2022-12-26T04:26:05;11.13;;;7.63;;
40745;SDS011;26454;51.164;4.488;2022-12-26T04:28:51;8.93;;;8.02;;
40745;SDS011;26454;51.164;4.488;2022-12-26T04:31:40;8.80;;;7.25;;
40745;SDS011;26454;51.164;4.488;2022-12-26T04:34:32;10.73;;;6.90;;
40745;SDS011;26454;51.164;4.488;2022-12-26T04:37:22;8.10;;;7.30;;
40745;SDS011;26454;51.164;4.488;2022-12-26T04:40:08;10.90;;;6.82;;
40745;SDS011;26454;51.164;4.488;2022-12-26T04:42:54;8.68;;;6.75;;
40745;SDS011;26454;51.164;4.488;2022-12-26T04:45:40;7.22;;;6.07;;
40745;SDS011;26454;51.164;4.488;2022-12-26T04:48:06;9.00;;;6.13;;
40745;SDS011;26454;51.164;4.488;2022-12-26T04:50:55;6.23;;;5.60;;
40745;SDS011;26454;51.164;4.488;2022-12-26T04:53:21;7.15;;;5.07;;
40745;SDS011;26454;51.164;4.488;2022-12-26T04:55:47;6.93;;;5.78;;
40745;SDS011;26454;51.164;4.488;2022-12-26T04:58:13;5.40;;;4.90;;
40745;SDS011;26454;51.164;4.488;2022-12-26T05:00:40;5.85;;;5.30;;
40745;SDS011;26454;51.164;4.488;2022-12-26T05:03:07;9.68;;;5.53;;
40745;SDS011;26454;51.164;4.488;2022-12-26T05:05:52;6.75;;;4.70;;
40745;SDS011;26454;51.164;4.488;2022-12-26T05:11:21;6.45;;;5.38;;
40745;SDS011;26454;51.164;4.488;2022-12-26T05:13:47;6.88;;;4.78;;
40745;SDS011;26454;51.164;4.488;2022-12-26T05:16:14;6.50;;;5.95;;
40745;SDS011;26454;51.164;4.488;2022-12-26T05:18:58;13.35;;;6.03;;
40745;SDS011;26454;51.164;4.488;2022-12-26T05:21:42;8.50;;;5.32;;
40745;SDS011;26454;51.164;4.488;2022-12-26T05:24:28;6.53;;;5.20;;
40745;SDS011;26454;51.164;4.488;2022-12-26T05:27:15;5.47;;;4.97;;
40745;SDS011;26454;51.164;4.488;2022-12-26T05:30:00;6.50;;;5.03;;
40745;SDS011;26454;51.164;4.488;2022-12-26T05:32:26;6.43;;;5.28;;
40745;SDS011;26454;51.164;4.488;2022-12-26T05:35:11;5.95;;;5.15;;
40745;SDS011;26454;51.164;4.488;2022-12-26T05:37:37;5.88;;;5.00;;
40745;SDS011;26454;51.164;4.488;2022-12-26T05:40:03;5.50;;;5.00;;
40745;SDS011;26454;51.164;4.488;2022-12-26T05:42:29;6.13;;;5.00;;
40745;SDS011;26454;51.164;4.488;2022-12-26T05:44:55;6.25;;;4.50;;
40745;SDS011;26454;51.164;4.488;2022-12-26T05:47:21;5.53;;;4.90;;
40745;SDS011;26454;51.164;4.488;2022-12-26T05:49:48;4.97;;;4.38;;
40745;SDS011;26454;51.164;4.488;2022-12-26T05:52:14;5.10;;;4.20;;
40745;SDS011;26454;51.164;4.488;2022-12-26T05:54:40;7.68;;;4.88;;
40745;SDS011;26454;51.164;4.488;2022-12-26T05:57:06;6.30;;;5.20;;
40745;SDS011;26454;51.164;4.488;2022-12-26T05:59:32;4.88;;;4.38;;
40745;SDS011;26454;51.164;4.488;2022-12-26T06:01:59;7.63;;;4.38;;
40745;SDS011;26454;51.164;4.488;2022-12-26T06:04:25;6.20;;;4.55;;
40745;SDS011;26454;51.164;4.488;2022-12-26T06:06:51;5.93;;;4.63;;
40745;SDS011;26454;51.164;4.488;2022-12-26T06:09:20;8.00;;;4.35;;
40745;SDS011;26454;51.164;4.488;2022-12-26T06:11:47;6.90;;;3.97;;
40745;SDS011;26454;51.164;4.488;2022-12-26T06:14:13;3.85;;;3.40;;
40745;SDS011;26454;51.164;4.488;2022-12-26T06:16:39;7.40;;;3.95;;
40745;SDS011;26454;51.164;4.488;2022-12-26T06:19:06;7.30;;;4.07;;
40745;SDS011;26454;51.164;4.488;2022-12-26T06:21:32;4.43;;;3.58;;
40745;SDS011;26454;51.164;4.488;2022-12-26T06:23:59;6.90;;;3.30;;
40745;SDS011;26454;51.164;4.488;2022-12-26T06:26:25;7.38;;;3.95;;
40745;SDS011;26454;51.164;4.488;2022-12-26T06:28:51;5.03;;;3.90;;
40745;SDS011;26454;51.164;4.488;2022-12-26T06:31:18;10.02;;;3.83;;
40745;SDS011;26454;51.164;4.488;2022-12-26T06:33:45;4.32;;;3.50;;
40745;SDS011;26454;51.164;4.488;2022-12-26T06:36:12;6.85;;;3.63;;
40745;SDS011;26454;51.164;4.488;2022-12-26T06:38:39;6.80;;;4.13;;
40745;SDS011;26454;51.164;4.488;2022-12-26T06:41:05;9.35;;;3.97;;
40745;SDS011;26454;51.164;4.488;2022-12-26T06:43:31;6.30;;;4.05;;
40745;SDS011;26454;51.164;4.488;2022-12-26T06:45:58;9.88;;;4.25;;
40745;SDS011;26454;51.164;4.488;2022-12-26T06:48:24;5.22;;;4.38;;
40745;SDS011;26454;51.164;4.488;2022-12-26T06:50:51;8.50;;;4.43;;
40745;SDS011;26454;51.164;4.488;2022-12-26T06:53:19;5.43;;;3.80;;
40745;SDS011;26454;51.164;4.488;2022-12-26T06:55:46;7.95;;;4.18;;
40745;SDS011;26454;51.164;4.488;2022-12-26T06:58:12;4.93;;;3.70;;
40745;SDS011;26454;51.164;4.488;2022-12-26T07:00:38;4.35;;;3.95;;
40745;SDS011;26454;51.164;4.488;2022-12-26T07:03:04;5.70;;;3.70;;
40745;SDS011;26454;51.164;4.488;2022-12-26T07:05:30;6.88;;;3.60;;
40745;SDS011;26454;51.164;4.488;2022-12-26T07:07:56;5.05;;;4.07;;
40745;SDS011;26454;51.164;4.488;2022-12-26T07:10:22;5.78;;;4.32;;
40745;SDS011;26454;51.164;4.488;2022-12-26T07:12:48;8.93;;;4.63;;
40745;SDS011;26454;51.164;4.488;2022-12-26T07:15:14;7.93;;;4.38;;
40745;SDS011;26454;51.164;4.488;2022-12-26T07:17:40;9.27;;;3.72;;
40745;SDS011;26454;51.164;4.488;2022-12-26T07:20:07;7.18;;;4.00;;
40745;SDS011;26454;51.164;4.488;2022-12-26T07:22:33;5.88;;;4.03;;
40745;SDS011;26454;51.164;4.488;2022-12-26T07:24:59;10.02;;;4.00;;
40745;SDS011;26454;51.164;4.488;2022-12-26T07:27:25;4.65;;;3.60;;
40745;SDS011;26454;51.164;4.488;2022-12-26T07:29:51;4.78;;;3.92;;
40745;SDS011;26454;51.164;4.488;2022-12-26T07:32:17;9.57;;;4.00;;
40745;SDS011;26454;51.164;4.488;2022-12-26T07:34:43;7.78;;;3.78;;
40745;SDS011;26454;51.164;4.488;2022-12-26T07:37:09;5.35;;;3.42;;
40745;SDS011;26454;51.164;4.488;2022-12-26T07:39:35;4.30;;;3.53;;
40745;SDS011;26454;51.164;4.488;2022-12-26T07:42:02;3.55;;;3.35;;
40745;SDS011;26454;51.164;4.488;2022-12-26T07:44:29;3.65;;;2.97;;
40745;SDS011;26454;51.164;4.488;2022-12-26T07:46:56;4.75;;;3.47;;
40745;SDS011;26454;51.164;4.488;2022-12-26T07:49:22;7.45;;;2.90;;
40745;SDS011;26454;51.164;4.488;2022-12-26T07:51:48;8.23;;;3.50;;
40745;SDS011;26454;51.164;4.488;2022-12-26T07:54:15;5.07;;;2.47;;
40745;SDS011;26454;51.164;4.488;2022-12-26T07:56:42;5.30;;;2.75;;
40745;SDS011;26454;51.164;4.488;2022-12-26T07:59:12;6.13;;;3.05;;
40745;SDS011;26454;51.164;4.488;2022-12-26T08:01:39;5.85;;;2.53;;
40745;SDS011;26454;51.164;4.488;2022-12-26T08:04:05;7.07;;;2.83;;
40745;SDS011;26454;51.164;4.488;2022-12-26T08:06:31;6.47;;;2.47;;
40745;SDS011;26454;51.164;4.488;2022-12-26T08:08:58;6.28;;;2.92;;
40745;SDS011;26454;51.164;4.488;2022-12-26T08:11:24;6.82;;;2.40;;
40745;SDS011;26454;51.164;4.488;2022-12-26T08:13:50;7.32;;;2.15;;
40745;SDS011;26454;51.164;4.488;2022-12-26T08:16:16;9.98;;;2.30;;
40745;SDS011;26454;51.164;4.488;2022-12-26T08:18:42;8.05;;;2.42;;
40745;SDS011;26454;51.164;4.488;2022-12-26T08:21:09;7.50;;;1.98;;
40745;SDS011;26454;51.164;4.488;2022-12-26T08:23:35;3.72;;;2.17;;
40745;SDS011;26454;51.164;4.488;2022-12-26T08:26:07;7.82;;;3.63;;
40745;SDS011;26454;51.164;4.488;2022-12-26T08:28:34;4.32;;;1.88;;
40745;SDS011;26454;51.164;4.488;2022-12-26T08:31:03;7.55;;;2.00;;
40745;SDS011;26454;51.164;4.488;2022-12-26T08:33:30;8.25;;;2.22;;
40745;SDS011;26454;51.164;4.488;2022-12-26T08:35:59;4.88;;;2.35;;
40745;SDS011;26454;51.164;4.488;2022-12-26T08:38:26;9.57;;;2.83;;
40745;SDS011;26454;51.164;4.488;2022-12-26T08:40:53;3.35;;;1.80;;
40745;SDS011;26454;51.164;4.488;2022-12-26T08:43:20;6.80;;;3.30;;
40745;SDS011;26454;51.164;4.488;2022-12-26T08:45:47;4.70;;;2.38;;
40745;SDS011;26454;51.164;4.488;2022-12-26T08:48:13;5.72;;;2.65;;
40745;SDS011;26454;51.164;4.488;2022-12-26T08:50:39;4.85;;;2.10;;
40745;SDS011;26454;51.164;4.488;2022-12-26T08:53:05;4.97;;;2.30;;
40745;SDS011;26454;51.164;4.488;2022-12-26T08:55:31;7.28;;;2.10;;
40745;SDS011;26454;51.164;4.488;2022-12-26T08:57:57;5.28;;;2.58;;
40745;SDS011;26454;51.164;4.488;2022-12-26T09:00:23;4.50;;;2.53;;
40745;SDS011;26454;51.164;4.488;2022-12-26T09:02:50;3.63;;;3.25;;
40745;SDS011;26454;51.164;4.488;2022-12-26T09:05:16;8.07;;;2.28;;
40745;SDS011;26454;51.164;4.488;2022-12-26T09:07:42;4.45;;;2.03;;
40745;SDS011;26454;51.164;4.488;2022-12-26T09:10:08;8.30;;;1.70;;
40745;SDS011;26454;51.164;4.488;2022-12-26T09:12:35;4.57;;;2.13;;
40745;SDS011;26454;51.164;4.488;2022-12-26T09:15:00;3.13;;;1.60;;
40745;SDS011;26454;51.164;4.488;2022-12-26T09:17:27;6.55;;;2.10;;
40745;SDS011;26454;51.164;4.488;2022-12-26T09:19:53;5.90;;;2.38;;
40745;SDS011;26454;51.164;4.488;2022-12-26T09:22:19;4.57;;;1.77;;
40745;SDS011;26454;51.164;4.488;2022-12-26T09:25:03;6.07;;;2.13;;
40745;SDS011;26454;51.164;4.488;2022-12-26T09:27:30;7.72;;;3.28;;
40745;SDS011;26454;51.164;4.488;2022-12-26T09:29:56;6.75;;;2.60;;
40745;SDS011;26454;51.164;4.488;2022-12-26T09:32:23;6.32;;;1.80;;
40745;SDS011;26454;51.164;4.488;2022-12-26T09:34:49;5.45;;;1.92;;
40745;SDS011;26454;51.164;4.488;2022-12-26T09:37:15;4.75;;;1.80;;
40745;SDS011;26454;51.164;4.488;2022-12-26T09:39:41;6.30;;;2.15;;
40745;SDS011;26454;51.164;4.488;2022-12-26T09:47:28;4.33;;;1.97;;
40745;SDS011;26454;51.164;4.488;2022-12-26T09:49:56;4.65;;;1.77;;
40745;SDS011;26454;51.164;4.488;2022-12-26T09:53:10;3.27;;;1.83;;
40745;SDS011;26454;51.164;4.488;2022-12-26T10:01:06;6.13;;;3.58;;
40745;SDS011;26454;51.164;4.488;2022-12-26T10:03:31;4.82;;;2.20;;
40745;SDS011;26454;51.164;4.488;2022-12-26T10:06:42;7.80;;;2.35;;
40745;SDS011;26454;51.164;4.488;2022-12-26T10:09:00;4.93;;;2.40;;
40745;SDS011;26454;51.164;4.488;2022-12-26T10:11:36;6.68;;;2.30;;
40745;SDS011;26454;51.164;4.488;2022-12-26T10:24:52;4.25;;;2.00;;
40745;SDS011;26454;51.164;4.488;2022-12-26T10:27:19;6.80;;;2.05;;
40745;SDS011;26454;51.164;4.488;2022-12-26T10:29:53;7.50;;;2.28;;
40745;SDS011;26454;51.164;4.488;2022-12-26T10:32:31;9.77;;;3.05;;
40745;SDS011;26454;51.164;4.488;2022-12-26T10:34:58;8.07;;;2.38;;
40745;SDS011;26454;51.164;4.488;2022-12-26T10:40:01;12.63;;;2.78;;
40745;SDS011;26454;51.164;4.488;2022-12-26T10:42:33;14.05;;;3.45;;
40745;SDS011;26454;51.164;4.488;2022-12-26T10:45:01;8.05;;;2.63;;
40745;SDS011;26454;51.164;4.488;2022-12-26T10:47:35;13.15;;;3.65;;
40745;SDS011;26454;51.164;4.488;2022-12-26T10:50:03;9.88;;;2.83;;
40745;SDS011;26454;51.164;4.488;2022-12-26T10:52:31;12.30;;;2.67;;
40745;SDS011;26454;51.164;4.488;2022-12-26T10:54:59;13.88;;;2.58;;
40745;SDS011;26454;51.164;4.488;2022-12-26T10:57:26;13.07;;;3.13;;
40745;SDS011;26454;51.164;4.488;2022-12-26T10:59:53;14.68;;;2.85;;
40745;SDS011;26454;51.164;4.488;2022-12-26T11:02:30;9.27;;;2.72;;
40745;SDS011;26454;51.164;4.488;2022-12-26T11:07:23;13.38;;;3.30;;
40745;SDS011;26454;51.164;4.488;2022-12-26T11:09:50;13.27;;;3.35;;
40745;SDS011;26454;51.164;4.488;2022-12-26T11:17:53;9.70;;;3.80;;
40745;SDS011;26454;51.164;4.488;2022-12-26T11:20:26;13.88;;;2.92;;
40745;SDS011;26454;51.164;4.488;2022-12-26T11:22:52;8.70;;;2.55;;
40745;SDS011;26454;51.164;4.488;2022-12-26T11:25:25;9.82;;;2.30;;
40745;SDS011;26454;51.164;4.488;2022-12-26T11:27:56;12.38;;;3.38;;
40745;SDS011;26454;51.164;4.488;2022-12-26T11:33:05;12.32;;;3.22;;
40745;SDS011;26454;51.164;4.488;2022-12-26T11:35:32;9.68;;;2.63;;
40745;SDS011;26454;51.164;4.488;2022-12-26T11:38:01;9.73;;;2.92;;
40745;SDS011;26454;51.164;4.488;2022-12-26T11:40:34;10.10;;;2.50;;
40745;SDS011;26454;51.164;4.488;2022-12-26T11:43:01;7.93;;;2.08;;
40745;SDS011;26454;51.164;4.488;2022-12-26T11:45:28;4.57;;;2.17;;
40745;SDS011;26454;51.164;4.488;2022-12-26T11:47:56;18.10;;;3.28;;
40745;SDS011;26454;51.164;4.488;2022-12-26T11:50:24;11.52;;;2.53;;
40745;SDS011;26454;51.164;4.488;2022-12-26T11:52:52;8.95;;;2.25;;
40745;SDS011;26454;51.164;4.488;2022-12-26T11:57:59;9.23;;;3.20;;
40745;SDS011;26454;51.164;4.488;2022-12-26T12:00:26;9.57;;;2.50;;
40745;SDS011;26454;51.164;4.488;2022-12-26T12:02:53;8.73;;;3.20;;
40745;SDS011;26454;51.164;4.488;2022-12-26T12:05:31;8.82;;;2.72;;
40745;SDS011;26454;51.164;4.488;2022-12-26T12:08:08;7.25;;;2.38;;
40745;SDS011;26454;51.164;4.488;2022-12-26T12:10:47;9.07;;;3.67;;
40745;SDS011;26454;51.164;4.488;2022-12-26T12:31:59;8.00;;;3.37;;
40745;SDS011;26454;51.164;4.488;2022-12-26T12:42:14;8.68;;;2.42;;
40745;SDS011;26454;51.164;4.488;2022-12-26T12:57:49;4.67;;;2.10;;
40745;SDS011;26454;51.164;4.488;2022-12-26T13:00:17;4.60;;;2.15;;
40745;SDS011;26454;51.164;4.488;2022-12-26T13:05:15;9.00;;;2.10;;
40745;SDS011;26454;51.164;4.488;2022-12-26T13:07:43;8.30;;;2.50;;
40745;SDS011;26454;51.164;4.488;2022-12-26T13:10:45;10.70;;;2.60;;
40745;SDS011;26454;51.164;4.488;2022-12-26T13:13:10;8.65;;;2.97;;
40745;SDS011;26454;51.164;4.488;2022-12-26T13:15:39;7.15;;;2.53;;
40745;SDS011;26454;51.164;4.488;2022-12-26T13:20:47;8.93;;;2.15;;
40745;SDS011;26454;51.164;4.488;2022-12-26T13:23:19;7.00;;;2.70;;
40745;SDS011;26454;51.164;4.488;2022-12-26T13:26:07;10.60;;;3.40;;
40745;SDS011;26454;51.164;4.488;2022-12-26T13:28:37;10.20;;;2.30;;
40745;SDS011;26454;51.164;4.488;2022-12-26T13:33:30;12.50;;;2.35;;
40745;SDS011;26454;51.164;4.488;2022-12-26T13:36:01;12.68;;;2.33;;
40745;SDS011;26454;51.164;4.488;2022-12-26T13:41:15;6.18;;;2.03;;
40745;SDS011;26454;51.164;4.488;2022-12-26T13:49:02;10.82;;;2.45;;
40745;SDS011;26454;51.164;4.488;2022-12-26T13:51:48;9.35;;;2.47;;
40745;SDS011;26454;51.164;4.488;2022-12-26T13:54:14;5.75;;;2.10;;
40745;SDS011;26454;51.164;4.488;2022-12-26T13:59:11;7.00;;;1.88;;
40745;SDS011;26454;51.164;4.488;2022-12-26T14:02:02;3.60;;;1.88;;
40745;SDS011;26454;51.164;4.488;2022-12-26T14:10:04;10.63;;;2.05;;
40745;SDS011;26454;51.164;4.488;2022-12-26T14:12:53;8.05;;;2.78;;
40745;SDS011;26454;51.164;4.488;2022-12-26T14:20:23;4.15;;;1.80;;
40745;SDS011;26454;51.164;4.488;2022-12-26T14:25:25;5.53;;;1.92;;
40745;SDS011;26454;51.164;4.488;2022-12-26T14:27:54;6.30;;;2.10;;
40745;SDS011;26454;51.164;4.488;2022-12-26T14:30:29;5.10;;;1.55;;
40745;SDS011;26454;51.164;4.488;2022-12-26T14:38:11;9.73;;;1.52;;
40745;SDS011;26454;51.164;4.488;2022-12-26T14:41:00;10.35;;;2.15;;
40745;SDS011;26454;51.164;4.488;2022-12-26T14:43:32;5.97;;;2.72;;
40745;SDS011;26454;51.164;4.488;2022-12-26T14:45:58;5.78;;;2.35;;
40745;SDS011;26454;51.164;4.488;2022-12-26T14:50:54;7.65;;;2.30;;
40745;SDS011;26454;51.164;4.488;2022-12-26T14:58:47;8.60;;;2.03;;
40745;SDS011;26454;51.164;4.488;2022-12-26T15:37:37;7.65;;;2.63;;
40745;SDS011;26454;51.164;4.488;2022-12-26T15:55:08;10.60;;;3.35;;
40745;SDS011;26454;51.164;4.488;2022-12-26T15:57:49;7.63;;;2.20;;
40745;SDS011;26454;51.164;4.488;2022-12-26T16:05:20;13.57;;;4.55;;
40745;SDS011;26454;51.164;4.488;2022-12-26T16:07:51;11.73;;;4.20;;
40745;SDS011;26454;51.164;4.488;2022-12-26T16:10:28;12.15;;;3.35;;
40745;SDS011;26454;51.164;4.488;2022-12-26T16:15:24;5.50;;;2.75;;
40745;SDS011;26454;51.164;4.488;2022-12-26T16:17:50;5.72;;;2.72;;
40745;SDS011;26454;51.164;4.488;2022-12-26T16:20:24;12.82;;;5.03;;
40745;SDS011;26454;51.164;4.488;2022-12-26T16:23:13;7.97;;;4.13;;
40745;SDS011;26454;51.164;4.488;2022-12-26T16:25:45;9.07;;;3.53;;
40745;SDS011;26454;51.164;4.488;2022-12-26T16:28:11;13.30;;;4.05;;
40745;SDS011;26454;51.164;4.488;2022-12-26T16:30:37;7.28;;;3.53;;
40745;SDS011;26454;51.164;4.488;2022-12-26T16:33:04;7.15;;;3.63;;
40745;SDS011;26454;51.164;4.488;2022-12-26T16:35:34;11.85;;;3.90;;
40745;SDS011;26454;51.164;4.488;2022-12-26T16:38:02;15.70;;;3.40;;
40745;SDS011;26454;51.164;4.488;2022-12-26T16:42:56;9.57;;;3.75;;
40745;SDS011;26454;51.164;4.488;2022-12-26T16:45:22;9.57;;;4.85;;
40745;SDS011;26454;51.164;4.488;2022-12-26T16:47:49;13.75;;;4.63;;
40745;SDS011;26454;51.164;4.488;2022-12-26T16:50:16;12.43;;;4.03;;
40745;SDS011;26454;51.164;4.488;2022-12-26T16:52:42;10.50;;;4.70;;
40745;SDS011;26454;51.164;4.488;2022-12-26T16:55:21;12.27;;;5.18;;
40745;SDS011;26454;51.164;4.488;2022-12-26T16:57:49;12.43;;;5.47;;
40745;SDS011;26454;51.164;4.488;2022-12-26T17:00:16;18.92;;;6.20;;
40745;SDS011;26454;51.164;4.488;2022-12-26T17:02:44;13.50;;;4.90;;
40745;SDS011;26454;51.164;4.488;2022-12-26T17:05:21;18.52;;;4.55;;
40745;SDS011;26454;51.164;4.488;2022-12-26T17:07:50;15.82;;;4.68;;
40745;SDS011;26454;51.164;4.488;2022-12-26T17:10:18;9.35;;;4.00;;
40745;SDS011;26454;51.164;4.488;2022-12-26T17:12:45;10.90;;;4.68;;
40745;SDS011;26454;51.164;4.488;2022-12-26T17:15:17;10.30;;;4.55;;
40745;SDS011;26454;51.164;4.488;2022-12-26T17:17:44;9.60;;;4.50;;
40745;SDS011;26454;51.164;4.488;2022-12-26T17:22:47;16.02;;;5.35;;
40745;SDS011;26454;51.164;4.488;2022-12-26T17:27:44;12.75;;;4.90;;
40745;SDS011;26454;51.164;4.488;2022-12-26T17:30:25;14.02;;;5.93;;
40745;SDS011;26454;51.164;4.488;2022-12-26T17:32:52;14.65;;;6.60;;
40745;SDS011;26454;51.164;4.488;2022-12-26T17:35:19;8.60;;;4.97;;
40745;SDS011;26454;51.164;4.488;2022-12-26T17:37:49;14.90;;;6.53;;
40745;SDS011;26454;51.164;4.488;2022-12-26T17:42:45;12.55;;;5.25;;
40745;SDS011;26454;51.164;4.488;2022-12-26T17:45:14;13.48;;;5.32;;
40745;SDS011;26454;51.164;4.488;2022-12-26T17:47:40;19.25;;;5.50;;
40745;SDS011;26454;51.164;4.488;2022-12-26T17:50:06;13.70;;;5.20;;
40745;SDS011;26454;51.164;4.488;2022-12-26T17:52:32;15.30;;;6.45;;
40745;SDS011;26454;51.164;4.488;2022-12-26T17:54:58;15.90;;;6.07;;
40745;SDS011;26454;51.164;4.488;2022-12-26T17:57:27;12.80;;;5.13;;
40745;SDS011;26454;51.164;4.488;2022-12-26T17:59:53;17.63;;;5.60;;
40745;SDS011;26454;51.164;4.488;2022-12-26T18:02:20;18.00;;;6.45;;
40745;SDS011;26454;51.164;4.488;2022-12-26T18:04:46;17.48;;;7.50;;
40745;SDS011;26454;51.164;4.488;2022-12-26T18:07:15;15.00;;;6.75;;
40745;SDS011;26454;51.164;4.488;2022-12-26T18:09:42;13.15;;;7.18;;
40745;SDS011;26454;51.164;4.488;2022-12-26T18:12:12;23.15;;;7.07;;
40745;SDS011;26454;51.164;4.488;2022-12-26T18:14:38;13.60;;;6.47;;
40745;SDS011;26454;51.164;4.488;2022-12-26T18:17:04;14.40;;;7.53;;
40745;SDS011;26454;51.164;4.488;2022-12-26T18:19:31;16.77;;;6.78;;
40745;SDS011;26454;51.164;4.488;2022-12-26T18:22:01;16.92;;;7.05;;
40745;SDS011;26454;51.164;4.488;2022-12-26T18:24:27;15.88;;;6.95;;
40745;SDS011;26454;51.164;4.488;2022-12-26T18:26:55;15.15;;;7.07;;
40745;SDS011;26454;51.164;4.488;2022-12-26T18:29:21;12.02;;;6.43;;
40745;SDS011;26454;51.164;4.488;2022-12-26T18:31:47;16.40;;;7.88;;
40745;SDS011;26454;51.164;4.488;2022-12-26T18:34:13;18.88;;;7.90;;
40745;SDS011;26454;51.164;4.488;2022-12-26T18:36:40;13.82;;;6.03;;
40745;SDS011;26454;51.164;4.488;2022-12-26T18:39:09;21.17;;;6.63;;
40745;SDS011;26454;51.164;4.488;2022-12-26T18:41:38;13.00;;;6.18;;
40745;SDS011;26454;51.164;4.488;2022-12-26T18:44:04;10.75;;;6.45;;
40745;SDS011;26454;51.164;4.488;2022-12-26T18:46:31;19.67;;;6.90;;
40745;SDS011;26454;51.164;4.488;2022-12-26T18:48:58;14.95;;;6.45;;
40745;SDS011;26454;51.164;4.488;2022-12-26T18:51:24;16.98;;;6.55;;
40745;SDS011;26454;51.164;4.488;2022-12-26T18:53:52;13.05;;;6.78;;
40745;SDS011;26454;51.164;4.488;2022-12-26T18:56:20;12.95;;;6.05;;
40745;SDS011;26454;51.164;4.488;2022-12-26T18:58:47;10.25;;;5.15;;
40745;SDS011;26454;51.164;4.488;2022-12-26T19:01:15;18.88;;;7.13;;
40745;SDS011;26454;51.164;4.488;2022-12-26T19:03:41;18.40;;;6.60;;